This is the latest recevied weather packets stored in our database for station/object NA4DL. If no packets are shown the sender has not sent any weather packets the latest 10 day(s).
| Time | Temp. | Humidity | Pressure | Rain* | Wind** | Luminosity | Snow |
|---|---|---|---|---|---|---|---|
| 1777137017 | 24.44° C | 71% | 1009 hPa | 0 mm | - | 501 W/m² | - |
| 1777135818 | 23.89° C | 71% | 1009.3 hPa | 0 mm | - | 318 W/m² | - |
| 1777134618 | 23.33° C | 77% | 1009.4 hPa | 0 mm | - | 198 W/m² | - |
| 1777134018 | 23.89° C | 76% | 1009.3 hPa | 0 mm | - | 177 W/m² | - |
| 1777130425 | 21.67° C | 87% | 1009.3 hPa | 0 mm | - | 123 W/m² | - |
| 1777127426 | 19.44° C | 95% | 1009.4 hPa | 0 mm | - | 86 W/m² | - |
| 1777124427 | 18.33° C | 100% | 1009.5 hPa | 0 mm | - | 81 W/m² | - |
| 1777123827 | 18.33° C | 99% | 1009.4 hPa | 0 mm | - | 91 W/m² | - |
| 1777123227 | 18.33° C | 99% | 1009.5 hPa | 0 mm | - | 53 W/m² | - |
| 1777119028 | 16.67° C | 99% | 1009.1 hPa | 0 mm | - | 37 W/m² | - |
| 1777114230 | 15° C | 99% | 1008.4 hPa | 0 mm | - | 0 W/m² | - |
| 1777113070 | 15° C | 99% | 1008.2 hPa | 0 mm | - | 0 W/m² | - |
| 1777112430 | 15° C | 99% | 1008.3 hPa | 0 mm | - | 0 W/m² | - |
| 1777111230 | 15.56° C | 99% | 1008.1 hPa | 0 mm | - | 0 W/m² | - |
| 1777110670 | 15.56° C | 99% | 1008 hPa | 0 mm | - | 0 W/m² | - |
| 1777109430 | 15.56° C | 99% | 1007.8 hPa | 0 mm | - | 0 W/m² | - |
| 1777108831 | 15.56° C | 99% | 1008 hPa | 0 mm | - | 0 W/m² | - |
| 1777107031 | 16.11° C | 99% | 1008 hPa | 0 mm | - | 0 W/m² | - |
| 1777105831 | 15.56° C | 99% | 1008.3 hPa | 0 mm | - | 0 W/m² | - |
| 1777104617 | 15.56° C | 99% | 1008.2 hPa | 0 mm | - | 0 W/m² | - |
| 1777098019 | 16.11° C | 99% | 1008.7 hPa | 0 mm | - | 0 W/m² | - |
| 1777093220 | 16.67° C | 99% | 1008.7 hPa | 0 mm | - | 0 W/m² | - |
| 1776990618 | 23.33° C | 58% | 1011.8 hPa | 0 mm | - | 2 W/m² | - |
| 1776985839 | 26.11° C | 50% | 1011.9 hPa | 0 mm | - | 101 W/m² | - |
| 1776977418 | 27.78° C | 44% | 1012.6 hPa | 0 mm | - | 604 W/m² | - |
* Rain latest hour (hover to see other rain measurements)
** Current wind speed in m/s (hover to see current wind gust speed)